Time;durP1;ratioP1;P1;durP2;ratioP2;P2;SDS_P1;SDS_P2;PMS_P1;PMS_P2;Temp;Humidity;BMP_temperature;BMP_pressure;BME280_temperature;BME280_humidity;BME280_pressure;Samples;Min_cycle;Max_cycle;Signal;HPM_P1;HPM_P2
2022/04/13 00:02:03;;;;;;;16.08;11.27;;;12.20;99.90;;;;;;5094050;28;20043;-76
2022/04/13 00:04:29;;;;;;;;;;;12.50;99.90;;;;;;5094380;28;20063;-76
2022/04/13 00:06:54;;;;;;;15.02;10.02;;;12.00;99.90;;;;;;5093876;28;19927;-76
2022/04/13 00:09:20;;;;;;;13.10;9.50;;;12.00;99.90;;;;;;5094153;28;20050;-76
2022/04/13 00:11:46;;;;;;;15.63;11.07;;;12.40;99.90;;;;;;5075913;28;20036;-76
2022/04/13 00:14:11;;;;;;;13.07;10.45;;;12.50;99.90;;;;;;5094162;28;20126;-75
2022/04/13 00:16:37;;;;;;;16.52;10.32;;;12.10;99.90;;;;;;5093159;28;20357;-76
2022/04/13 00:19:03;;;;;;;16.17;10.90;;;12.20;99.90;;;;;;5092607;28;20039;-75
2022/04/13 00:21:29;;;;;;;13.80;10.32;;;11.80;99.90;;;;;;5076217;28;20088;-76
2022/04/13 00:23:56;;;;;;;18.27;10.57;;;11.90;99.90;;;;;;5093966;28;20048;-76
2022/04/13 00:26:23;;;;;;;18.55;11.43;;;11.80;99.90;;;;;;5076416;28;20040;-76
2022/04/13 00:28:48;;;;;;;13.88;11.05;;;11.50;99.90;;;;;;5075730;28;20043;-76
2022/04/13 00:31:14;;;;;;;14.45;11.15;;;11.40;99.90;;;;;;5075595;28;20056;-76
2022/04/13 00:33:40;;;;;;;16.17;11.60;;;11.50;99.90;;;;;;5094135;28;20066;-75
2022/04/13 00:36:06;;;;;;;17.58;11.02;;;12.20;99.90;;;;;;5094331;28;20105;-78
2022/04/13 00:38:31;;;;;;;18.13;10.90;;;11.10;99.90;;;;;;5093559;28;20533;-76
2022/04/13 00:40:57;;;;;;;11.85;9.98;;;12.20;99.90;;;;;;5094014;28;20044;-76
2022/04/13 00:43:24;;;;;;;15.95;11.02;;;11.50;99.90;;;;;;5093277;28;20048;-75
2022/04/13 00:45:50;;;;;;;18.17;11.52;;;11.70;99.90;;;;;;5075628;28;20075;-74
2022/04/13 00:48:35;;;;;;;16.65;11.38;;;11.40;99.90;;;;;;5093423;28;20093;-76
2022/04/13 00:51:01;;;;;;;18.45;11.20;;;11.80;99.90;;;;;;5094114;28;20084;-76
2022/04/13 00:53:29;;;;;;;18.08;11.23;;;11.40;99.90;;;;;;5092970;28;20373;-75
2022/04/13 00:55:56;;;;;;;19.83;11.02;;;11.70;99.90;;;;;;5092407;28;20434;-75
2022/04/13 00:58:24;;;;;;;20.77;11.93;;;12.10;99.90;;;;;;5092571;28;20052;-76
2022/04/13 01:00:51;;;;;;;15.38;11.40;;;11.60;99.90;;;;;;5093814;28;20104;-75
2022/04/13 01:03:22;;;;;;;15.93;11.63;;;11.90;99.90;;;;;;5092621;28;20045;-76
2022/04/13 01:05:49;;;;;;;14.48;11.23;;;11.40;99.90;;;;;;5093263;28;20079;-75
2022/04/13 01:08:17;;;;;;;20.17;11.80;;;11.80;99.90;;;;;;5093249;28;20075;-75
2022/04/13 01:10:47;;;;;;;16.95;12.18;;;11.50;99.90;;;;;;5076305;28;20052;-75
2022/04/13 01:13:14;;;;;;;15.57;11.70;;;11.30;99.90;;;;;;5075450;28;20480;-75
2022/04/13 01:15:40;;;;;;;22.33;12.88;;;11.70;99.90;;;;;;5093964;28;20112;-75
2022/04/13 01:18:06;;;;;;;17.63;11.90;;;11.30;99.90;;;;;;5092443;28;20097;-75
2022/04/13 01:20:34;;;;;;;20.85;12.30;;;11.40;99.90;;;;;;5092769;28;20075;-75
2022/04/13 01:23:00;;;;;;;17.73;12.45;;;11.20;99.90;;;;;;5093100;28;20052;-75
2022/04/13 01:25:28;;;;;;;16.25;12.48;;;12.10;99.90;;;;;;5093895;28;20051;-75
2022/04/13 01:27:54;;;;;;;17.10;12.65;;;11.20;99.90;;;;;;5093080;28;20055;-75
2022/04/13 01:30:23;;;;;;;22.70;12.75;;;11.30;99.90;;;;;;5092936;28;20056;-75
2022/04/13 01:32:52;;;;;;;17.52;13.52;;;12.60;99.90;;;;;;5091989;28;20044;-75
2022/04/13 01:35:18;;;;;;;21.20;13.30;;;11.50;99.90;;;;;;5093514;28;20434;-75
2022/04/13 01:37:44;;;;;;;;;;;12.30;99.90;;;;;;5092388;28;20127;-74
2022/04/13 01:40:10;;;;;;;18.20;12.70;;;12.20;99.90;;;;;;5092910;28;20027;-74
2022/04/13 01:42:37;;;;;;;24.52;14.65;;;11.60;99.90;;;;;;5042241;28;20368;-74
2022/04/13 01:45:06;;;;;;;23.45;13.73;;;11.50;99.90;;;;;;5093206;28;20399;-75
2022/04/13 01:47:31;;;;;;;22.38;15.15;;;11.30;99.90;;;;;;5092872;28;20048;-75
2022/04/13 01:49:59;;;;;;;21.55;14.65;;;11.70;99.90;;;;;;5092782;28;20132;-76
2022/04/13 01:52:25;;;;;;;23.75;14.50;;;11.70;99.90;;;;;;5091882;28;20056;-73
2022/04/13 01:54:51;;;;;;;26.17;14.15;;;11.60;99.90;;;;;;5093921;28;20105;-75
2022/04/13 01:57:17;;;;;;;26.65;14.13;;;11.60;99.90;;;;;;5095447;28;20051;-77
2022/04/13 01:59:42;;;;;;;20.80;14.60;;;11.40;99.90;;;;;;5096308;28;20044;-75
2022/04/13 02:02:08;;;;;;;20.17;15.10;;;11.40;99.90;;;;;;5096262;28;20048;-77
2022/04/13 02:04:34;;;;;;;24.25;15.98;;;11.30;99.90;;;;;;5096286;28;20047;-75
2022/04/13 02:07:00;;;;;;;23.27;16.88;;;11.90;99.90;;;;;;5096309;28;20048;-75
2022/04/13 02:09:26;;;;;;;24.63;16.20;;;11.60;99.90;;;;;;5095034;28;20047;-77
2022/04/13 02:11:51;;;;;;;23.33;15.77;;;11.40;99.90;;;;;;5094862;28;20044;-75
2022/04/13 02:14:17;;;;;;;25.20;16.52;;;13.50;99.90;;;;;;5094825;28;20052;-76
2022/04/13 02:16:43;;;;;;;23.45;15.63;;;11.20;99.90;;;;;;5096187;28;20065;-76
2022/04/13 02:19:11;;;;;;;26.58;16.40;;;12.80;99.90;;;;;;5095222;28;20051;-76
2022/04/13 02:21:38;;;;;;;24.38;15.90;;;12.90;99.90;;;;;;5095920;28;20084;-77
2022/04/13 02:24:04;;;;;;;27.90;15.27;;;11.70;99.90;;;;;;5094590;28;20052;-78
2022/04/13 02:26:29;;;;;;;;;;;12.00;99.90;;;;;;5094994;28;20441;-76
2022/04/13 02:28:55;;;;;;;26.15;15.82;;;12.00;99.90;;;;;;5077888;28;19920;-76
2022/04/13 02:31:21;;;;;;;27.08;16.98;;;11.90;99.90;;;;;;5094292;28;20143;-77
2022/04/13 02:33:47;;;;;;;;;;;11.90;99.90;;;;;;5094918;28;20050;-78
2022/04/13 02:36:13;;;;;;;30.95;17.50;;;11.90;99.90;;;;;;5078138;28;19967;-77
2022/04/13 02:38:39;;;;;;;28.30;17.67;;;11.80;99.90;;;;;;5094636;28;20087;-76
2022/04/13 02:41:05;;;;;;;28.60;18.48;;;12.10;99.90;;;;;;5095580;28;20471;-76
2022/04/13 02:43:31;;;;;;;30.02;18.08;;;11.90;99.90;;;;;;5095560;28;20052;-76
2022/04/13 02:45:57;;;;;;;34.50;18.15;;;11.90;99.90;;;;;;5096254;28;20048;-75
2022/04/13 02:48:23;;;;;;;28.00;18.98;;;11.90;99.90;;;;;;5095488;28;20048;-77
2022/04/13 02:50:49;;;;;;;33.42;18.13;;;11.70;99.90;;;;;;5094092;28;20077;-76
2022/04/13 02:53:15;;;;;;;31.45;19.08;;;11.80;99.90;;;;;;5095374;28;20147;-75
2022/04/13 02:55:41;;;;;;;32.67;19.38;;;11.70;99.90;;;;;;5095241;28;20130;-76
2022/04/13 02:58:07;;;;;;;32.63;18.75;;;12.00;99.90;;;;;;5094998;28;20595;-76
2022/04/13 03:00:34;;;;;;;31.45;19.10;;;11.50;99.90;;;;;;5095221;28;20153;-76
2022/04/13 03:02:59;;;;;;;35.10;19.35;;;11.50;99.90;;;;;;5094130;28;20040;-75
2022/04/13 03:05:25;;;;;;;30.50;20.02;;;11.80;99.90;;;;;;5094939;28;20039;-76
2022/04/13 03:07:51;;;;;;;37.38;19.48;;;11.20;99.90;;;;;;5093791;28;20048;-76
2022/04/13 03:10:17;;;;;;;35.15;18.65;;;11.60;99.90;;;;;;5095181;28;20044;-77
2022/04/13 03:12:42;;;;;;;26.98;19.15;;;12.60;99.90;;;;;;5094890;28;20079;-76
2022/04/13 03:15:10;;;;;;;37.03;19.08;;;11.60;99.90;;;;;;5094962;28;20083;-77
2022/04/13 03:17:35;;;;;;;35.80;20.20;;;11.50;99.90;;;;;;5094816;28;20484;-77
2022/04/13 03:20:02;;;;;;;32.10;18.70;;;11.40;99.90;;;;;;5094308;28;20055;-78
2022/04/13 03:22:28;;;;;;;28.55;18.52;;;11.20;99.90;;;;;;5094008;28;20514;-79
2022/04/13 03:24:54;;;;;;;30.33;19.10;;;12.40;99.90;;;;;;5094668;28;20048;-77
2022/04/13 03:27:19;;;;;;;36.38;20.25;;;11.60;99.90;;;;;;5094716;28;20055;-77
2022/04/13 03:29:45;;;;;;;27.90;19.67;;;11.20;99.90;;;;;;5093245;28;20480;-78
2022/04/13 03:32:11;;;;;;;36.22;20.38;;;10.80;99.90;;;;;;5093089;28;20153;-77
2022/04/13 03:34:37;;;;;;;33.67;20.73;;;11.30;99.90;;;;;;5094504;28;20047;-77
2022/04/13 03:37:03;;;;;;;34.70;20.92;;;10.90;99.90;;;;;;5093712;28;20127;-77
2022/04/13 03:39:29;;;;;;;;;;;11.00;99.90;;;;;;5095152;28;20036;-77
2022/04/13 03:41:54;;;;;;;36.20;21.38;;;11.40;99.90;;;;;;5094378;28;20271;-77
2022/04/13 03:44:20;;;;;;;34.95;21.42;;;10.80;99.90;;;;;;5094432;28;20048;-77
2022/04/13 03:46:46;;;;;;;35.38;20.92;;;11.80;99.90;;;;;;5077027;28;20383;-77
2022/04/13 03:49:12;;;;;;;33.08;20.05;;;11.70;99.90;;;;;;5094275;28;20486;-77
2022/04/13 03:51:37;;;;;;;38.03;19.40;;;10.90;99.90;;;;;;5094130;28;20105;-76
2022/04/13 03:54:03;;;;;;;36.55;21.13;;;10.60;99.90;;;;;;5094118;28;20050;-77
2022/04/13 03:56:30;;;;;;;32.15;20.20;;;10.60;99.90;;;;;;5093897;28;20437;-77
2022/04/13 03:58:59;;;;;;;;;;;10.40;99.90;;;;;;5094122;28;20372;-77
2022/04/13 04:01:25;;;;;;;34.58;22.40;;;10.50;99.90;;;;;;5093081;28;19920;-77
2022/04/13 04:03:51;;;;;;;40.33;22.35;;;10.80;99.90;;;;;;5092797;28;20055;-77
2022/04/13 04:06:17;;;;;;;39.40;22.98;;;12.10;99.90;;;;;;5093973;28;20040;-77
2022/04/13 04:08:43;;;;;;;;;;;10.60;99.90;;;;;;5094363;28;20048;-78
2022/04/13 04:11:09;;;;;;;42.95;23.73;;;10.90;99.90;;;;;;5075814;28;19927;-77
2022/04/13 04:13:35;;;;;;;;;;;10.20;99.90;;;;;;5094347;28;20044;-76
2022/04/13 04:16:01;;;;;;;37.47;23.40;;;10.80;99.90;;;;;;5092741;28;19924;-76
2022/04/13 04:18:27;;;;;;;38.67;24.70;;;10.30;99.90;;;;;;5075519;28;20051;-76
2022/04/13 04:20:53;;;;;;;40.08;23.92;;;10.50;99.90;;;;;;5092785;28;20080;-77
2022/04/13 04:23:19;;;;;;;38.83;24.63;;;10.30;99.90;;;;;;5076604;28;20082;-78
2022/04/13 04:25:45;;;;;;;40.05;24.55;;;10.60;99.90;;;;;;5092478;28;20051;-77
2022/04/13 04:28:11;;;;;;;39.67;25.13;;;10.50;99.90;;;;;;5093916;28;20052;-76
2022/04/13 04:30:37;;;;;;;38.17;24.77;;;10.30;99.90;;;;;;5091841;28;20051;-76
2022/04/13 04:33:05;;;;;;;40.50;25.30;;;10.70;99.90;;;;;;5093656;28;20455;-76
2022/04/13 04:35:31;;;;;;;46.40;24.70;;;11.20;99.90;;;;;;5092911;28;20157;-76
2022/04/13 04:37:56;;;;;;;40.90;26.08;;;10.80;99.90;;;;;;5093627;28;20083;-76
2022/04/13 04:40:22;;;;;;;37.30;24.02;;;10.60;99.90;;;;;;5093332;28;20044;-76
2022/04/13 04:42:51;;;;;;;40.60;24.77;;;10.40;99.90;;;;;;5092531;28;20488;-76
2022/04/13 04:45:19;;;;;;;38.08;23.98;;;10.70;99.90;;;;;;5093144;28;20084;-76
2022/04/13 04:47:53;;;;;;;40.83;25.27;;;11.40;99.90;;;;;;5094198;28;20052;-77
2022/04/13 04:50:20;;;;;;;48.42;26.35;;;10.40;99.90;;;;;;5093024;28;20052;-77
2022/04/13 04:52:47;;;;;;;41.25;26.13;;;10.60;99.90;;;;;;5093613;28;20135;-76
2022/04/13 04:55:16;;;;;;;39.70;25.20;;;11.80;99.90;;;;;;5093162;28;20131;-76
2022/04/13 04:57:42;;;;;;;40.33;25.67;;;10.60;99.90;;;;;;5092389;28;20050;-77
2022/04/13 05:00:10;;;;;;;39.00;25.73;;;10.70;99.90;;;;;;5093359;28;20051;-77
2022/04/13 05:02:37;;;;;;;45.03;25.33;;;10.30;99.90;;;;;;5092905;28;20523;-76
2022/04/13 05:05:04;;;;;;;39.63;25.25;;;10.90;99.90;;;;;;5093309;28;20072;-76
2022/04/13 05:07:30;;;;;;;43.22;26.08;;;10.40;99.90;;;;;;5093007;28;20063;-76
2022/04/13 05:09:56;;;;;;;42.42;26.52;;;10.60;99.90;;;;;;5093142;28;20475;-76
2022/04/13 05:12:21;;;;;;;42.53;25.42;;;10.80;99.90;;;;;;5093062;28;20048;-76
2022/04/13 05:14:47;;;;;;;46.53;25.50;;;10.80;99.90;;;;;;5093242;28;20063;-76
2022/04/13 05:17:14;;;;;;;41.45;25.25;;;10.80;99.90;;;;;;5092205;28;20040;-76
2022/04/13 05:19:39;;;;;;;45.50;26.48;;;11.20;99.90;;;;;;5075756;28;20276;-77
2022/04/13 05:22:05;;;;;;;42.83;26.63;;;11.00;99.90;;;;;;5093156;28;20495;-76
2022/04/13 05:24:31;;;;;;;46.22;26.88;;;11.00;99.90;;;;;;5093114;28;20075;-76
2022/04/13 05:26:56;;;;;;;47.25;27.90;;;10.90;99.90;;;;;;5093116;28;20040;-76
2022/04/13 05:29:22;;;;;;;44.28;26.70;;;10.90;99.90;;;;;;5094575;28;20120;-76
2022/04/13 05:31:48;;;;;;;39.45;26.80;;;11.20;99.90;;;;;;5095655;28;20051;-76
2022/04/13 05:34:14;;;;;;;42.25;26.73;;;11.10;99.90;;;;;;5097363;28;20357;-76
2022/04/13 05:36:39;;;;;;;45.92;27.10;;;11.20;99.90;;;;;;5095627;28;20059;-77
2022/04/13 05:39:05;;;;;;;43.85;27.63;;;11.00;99.90;;;;;;5096749;28;20080;-77
2022/04/13 05:41:31;;;;;;;45.03;27.00;;;12.40;99.90;;;;;;5097550;28;20044;-76
2022/04/13 05:43:57;;;;;;;40.75;26.48;;;10.90;99.90;;;;;;5078803;28;20123;-76
2022/04/13 05:46:23;;;;;;;;;;;11.90;99.90;;;;;;5097949;28;20388;-77
2022/04/13 05:48:48;;;;;;;48.72;26.92;;;11.20;99.90;;;;;;5129778;27;19920;-76
2022/04/13 05:51:14;;;;;;;42.67;26.70;;;11.10;99.90;;;;;;5096144;28;20126;-76
2022/04/13 05:53:40;;;;;;;50.22;28.00;;;11.10;99.90;;;;;;5095296;28;20052;-77
2022/04/13 05:56:06;;;;;;;49.50;28.35;;;12.60;99.90;;;;;;5095806;28;20044;-76
2022/04/13 05:58:32;;;;;;;43.05;27.85;;;11.20;99.90;;;;;;5095396;28;20055;-76
2022/04/13 06:00:58;;;;;;;42.20;27.48;;;11.40;99.90;;;;;;5096382;28;20044;-77
2022/04/13 06:03:24;;;;;;;47.28;27.95;;;11.30;99.90;;;;;;5095300;28;20048;-77
2022/04/13 06:05:51;;;;;;;44.63;27.90;;;11.60;99.90;;;;;;5096544;28;20040;-78
2022/04/13 06:08:17;;;;;;;45.88;28.02;;;11.80;99.90;;;;;;5095013;28;20094;-77
2022/04/13 06:10:43;;;;;;;;;;;12.10;99.90;;;;;;5095345;28;20051;-76
2022/04/13 06:13:09;;;;;;;40.50;26.38;;;11.60;99.90;;;;;;5096126;28;19920;-76
2022/04/13 06:15:35;;;;;;;47.72;27.55;;;11.80;99.90;;;;;;5094833;28;20078;-76
2022/04/13 06:18:01;;;;;;;38.80;26.15;;;11.80;99.90;;;;;;5096009;28;20120;-77
2022/04/13 06:20:26;;;;;;;45.35;27.40;;;12.20;99.90;;;;;;5094756;28;20036;-77
2022/04/13 06:22:52;;;;;;;40.22;27.15;;;11.70;99.90;;;;;;5094863;28;20048;-77
2022/04/13 06:25:19;;;;;;;39.38;26.17;;;11.80;99.90;;;;;;5076926;28;20542;-81
2022/04/13 06:27:45;;;;;;;44.55;26.98;;;12.10;99.90;;;;;;5094505;28;20051;-77
2022/04/13 06:30:12;;;;;;;41.42;26.67;;;12.60;99.90;;;;;;5095684;28;20060;-76
2022/04/13 06:32:43;;;;;;;44.92;27.90;;;12.10;99.90;;;;;;5094251;28;20052;-77
2022/04/13 06:35:14;;;;;;;44.38;27.55;;;12.10;99.90;;;;;;5078221;28;20487;-78
2022/04/13 06:37:42;;;;;;;52.58;28.48;;;12.10;99.90;;;;;;5094690;28;20414;-76
2022/04/13 06:40:08;;;;;;;42.85;26.75;;;12.50;99.90;;;;;;5093279;28;20547;-76
2022/04/13 06:42:37;;;;;;;;;;;12.30;99.90;;;;;;5094068;28;20055;-83
2022/04/13 06:45:10;;;;;;;46.78;27.90;;;13.30;99.90;;;;;;5094856;28;20363;-77
2022/04/13 06:47:36;;;;;;;45.70;26.60;;;12.40;99.90;;;;;;5094135;28;20079;-81
2022/04/13 06:50:02;;;;;;;39.50;26.52;;;12.20;99.90;;;;;;5093730;28;20083;-79
2022/04/13 06:52:32;;;;;;;;;;;12.50;99.90;;;;;;5095906;28;20063;-84
2022/04/13 06:54:58;;;;;;;42.85;26.05;;;12.60;99.90;;;;;;5077034;28;19920;-78
2022/04/13 06:57:23;;;;;;;43.38;24.27;;;12.50;99.90;;;;;;5093703;28;20051;-79
2022/04/13 06:59:49;;;;;;;45.90;24.67;;;12.50;99.90;;;;;;5093747;28;20392;-78
2022/04/13 07:02:15;;;;;;;46.58;25.05;;;12.70;99.90;;;;;;5095478;28;20123;-80
2022/04/13 07:04:41;;;;;;;39.45;23.02;;;12.60;99.90;;;;;;5094903;28;20060;-80
2022/04/13 07:07:07;;;;;;;39.50;22.90;;;12.60;99.90;;;;;;5095064;28;20040;-79
2022/04/13 07:09:33;;;;;;;35.75;22.17;;;12.70;99.90;;;;;;5093593;28;20473;-78
2022/04/13 07:11:59;;;;;;;40.50;23.50;;;12.40;99.90;;;;;;5094613;28;20075;-84
2022/04/13 07:14:25;;;;;;;37.47;21.98;;;12.80;99.90;;;;;;5095179;28;20456;-77
2022/04/13 07:16:51;;;;;;;30.63;20.63;;;12.50;99.90;;;;;;5093368;28;20032;-78
2022/04/13 07:19:16;;;;;;;;;;;12.50;99.90;;;;;;5094509;28;20048;-77
2022/04/13 07:21:43;;;;;;;34.33;20.42;;;12.50;99.90;;;;;;5093665;28;19927;-81
2022/04/13 07:24:10;;;;;;;;;;;12.80;99.90;;;;;;5094781;28;20089;-79
2022/04/13 07:26:36;;;;;;;34.08;20.50;;;12.50;99.90;;;;;;5077604;28;19920;-79
2022/04/13 07:29:02;;;;;;;31.10;21.00;;;12.60;99.90;;;;;;5076701;28;20067;-76
2022/04/13 07:31:28;;;;;;;;;;;12.70;99.90;;;;;;5093143;28;20403;-77
2022/04/13 07:33:55;;;;;;;37.45;20.38;;;12.70;99.90;;;;;;5127500;27;19920;-81
2022/04/13 07:36:21;;;;;;;34.60;20.27;;;13.30;99.90;;;;;;5093953;28;20536;-78
2022/04/13 07:38:46;;;;;;;31.45;19.70;;;12.60;99.90;;;;;;5093197;28;20048;-80
2022/04/13 07:41:12;;;;;;;33.05;18.90;;;12.80;99.90;;;;;;5093827;28;20048;-78
2022/04/13 07:43:38;;;;;;;33.00;19.63;;;12.90;99.90;;;;;;5092950;28;20155;-79
2022/04/13 07:46:03;;;;;;;30.77;19.92;;;13.00;99.90;;;;;;5076234;28;20036;-80
2022/04/13 07:48:30;;;;;;;33.33;20.25;;;13.50;99.90;;;;;;5093926;28;20055;-78
2022/04/13 07:50:56;;;;;;;29.23;19.52;;;13.10;99.90;;;;;;5093478;28;20044;-78
2022/04/13 07:53:21;;;;;;;33.13;19.05;;;14.50;99.90;;;;;;5094542;28;20318;-79
2022/04/13 07:55:47;;;;;;;35.40;18.67;;;13.20;99.90;;;;;;5094668;28;20043;-77
2022/04/13 07:58:13;;;;;;;30.35;17.92;;;13.50;99.90;;;;;;5092983;28;20040;-79
2022/04/13 08:00:38;;;;;;;;;;;13.50;99.90;;;;;;5127887;27;20063;-78
2022/04/13 08:03:05;;;;;;;33.53;17.38;;;13.80;99.90;;;;;;5076169;28;19927;-77
2022/04/13 08:05:32;;;;;;;30.67;17.77;;;13.50;99.90;;;;;;5076307;28;20063;-78
2022/04/13 08:07:57;;;;;;;29.48;17.30;;;13.70;99.90;;;;;;5092723;28;20564;-79
2022/04/13 08:10:23;;;;;;;31.08;17.58;;;13.80;99.90;;;;;;5093178;28;20079;-75
2022/04/13 08:12:49;;;;;;;;;;;13.80;99.90;;;;;;5094895;28;20125;-75
2022/04/13 08:15:15;;;;;;;30.90;18.60;;;13.80;99.90;;;;;;5075912;28;19927;-77
2022/04/13 08:17:41;;;;;;;29.08;17.52;;;14.20;99.90;;;;;;5092784;28;20058;-74
2022/04/13 08:20:09;;;;;;;27.95;18.45;;;14.20;99.90;;;;;;5092534;28;20443;-75
2022/04/13 08:22:35;;;;;;;30.58;18.10;;;14.10;99.90;;;;;;5076048;28;20055;-73
2022/04/13 08:25:01;;;;;;;26.58;16.73;;;14.30;99.90;;;;;;5093201;28;20040;-78
2022/04/13 08:27:26;;;;;;;;;;;14.10;99.90;;;;;;5092909;28;20048;-77
2022/04/13 08:29:53;;;;;;;31.85;17.83;;;15.30;99.90;;;;;;5092357;28;19927;-75
2022/04/13 08:32:19;;;;;;;25.85;16.58;;;14.70;99.90;;;;;;5093552;28;20040;-73
2022/04/13 08:34:48;;;;;;;;;;;14.40;99.90;;;;;;5093952;28;20044;-78
2022/04/13 08:37:14;;;;;;;29.40;17.40;;;14.50;99.90;;;;;;5092293;28;20368;-79
2022/04/13 08:39:40;;;;;;;31.00;17.63;;;14.60;99.90;;;;;;5093422;28;20051;-76
2022/04/13 08:42:09;;;;;;;28.95;16.70;;;14.70;99.90;;;;;;5094123;28;20040;-76
2022/04/13 08:44:46;;;;;;;28.38;16.60;;;14.80;99.90;;;;;;5093418;28;20055;-77
2022/04/13 08:47:15;;;;;;;31.65;16.73;;;14.80;99.90;;;;;;5075695;28;20047;-77
2022/04/13 08:49:43;;;;;;;24.38;16.13;;;14.70;99.90;;;;;;5092360;28;20055;-78
2022/04/13 08:52:12;;;;;;;24.55;16.23;;;14.40;99.90;;;;;;5092083;28;20040;-76
2022/04/13 08:54:49;;;;;;;25.17;16.30;;;14.50;99.90;;;;;;5075591;28;20047;-77
2022/04/13 08:57:15;;;;;;;;;;;14.50;99.90;;;;;;5076257;28;20083;-77
2022/04/13 09:00:02;;;;;;;25.10;17.37;;;14.30;99.90;;;;;;5092380;28;19927;-76
2022/04/13 09:02:55;;;;;;;27.95;17.95;;;14.40;99.90;;;;;;5093922;28;20059;-74
2022/04/13 09:05:25;;;;;;;26.08;15.77;;;14.90;99.90;;;;;;5097703;28;20088;-74
2022/04/13 09:08:30;;;;;;;23.40;15.00;;;14.90;99.90;;;;;;5096139;28;20053;-74
2022/04/13 09:10:56;;;;;;;25.80;16.25;;;14.50;99.90;;;;;;5084953;28;20055;-75
2022/04/13 09:13:24;;;;;;;28.33;16.58;;;15.20;99.90;;;;;;5096419;28;20108;-77
2022/04/13 09:15:51;;;;;;;29.50;16.13;;;15.30;99.90;;;;;;5096096;28;20052;-77
2022/04/13 09:18:17;;;;;;;25.30;15.77;;;15.40;99.90;;;;;;5097288;28;20048;-76
2022/04/13 09:20:43;;;;;;;25.02;15.70;;;15.50;99.90;;;;;;5097486;28;20048;-76
2022/04/13 09:23:08;;;;;;;;;;;15.40;99.90;;;;;;5098382;28;20040;-76
2022/04/13 09:25:36;;;;;;;27.95;14.35;;;15.70;99.90;;;;;;5096883;28;20351;-76
2022/04/13 09:28:03;;;;;;;27.50;14.68;;;15.90;99.90;;;;;;5095987;28;20054;-75
2022/04/13 09:30:30;;;;;;;;;;;16.30;99.90;;;;;;5095643;28;20083;-77
2022/04/13 09:32:58;;;;;;;20.38;13.57;;;16.10;99.90;;;;;;5095308;28;19920;-75
2022/04/13 09:35:24;;;;;;;21.40;14.82;;;16.10;99.90;;;;;;5097414;28;20372;-75
2022/04/13 09:37:49;;;;;;;;;;;16.70;99.90;;;;;;5097027;28;20041;-71
2022/04/13 09:40:33;;;;;;;21.73;13.55;;;16.40;99.90;;;;;;5095114;28;19989;-76
2022/04/13 09:43:10;;;;;;;22.13;13.70;;;16.60;99.90;;;;;;5078303;28;20082;-77
2022/04/13 09:45:40;;;;;;;24.58;13.63;;;16.80;99.90;;;;;;5096147;28;20132;-75
2022/04/13 09:48:10;;;;;;;18.67;10.82;;;16.80;99.90;;;;;;5095107;28;20052;-75
2022/04/13 09:50:37;;;;;;;24.25;12.98;;;16.90;99.90;;;;;;5096090;28;20464;-77
2022/04/13 09:53:05;;;;;;;20.85;12.55;;;16.90;99.90;;;;;;5095465;28;20055;-78
2022/04/13 09:55:52;;;;;;;22.48;13.50;;;16.70;99.90;;;;;;5095885;28;20052;-76
2022/04/13 09:58:19;;;;;;;19.85;12.50;;;17.10;99.90;;;;;;5095029;28;20056;-78
2022/04/13 10:00:47;;;;;;;19.08;10.75;;;17.20;99.90;;;;;;5096625;28;20040;-76
2022/04/13 10:03:18;;;;;;;19.50;11.50;;;17.40;99.90;;;;;;5095274;28;20079;-78
2022/04/13 10:05:55;;;;;;;18.17;11.32;;;17.00;99.90;;;;;;5078060;28;20048;-78
2022/04/13 10:08:22;;;;;;;22.83;12.00;;;17.30;99.90;;;;;;5094630;28;20056;-77
2022/04/13 10:10:50;;;;;;;23.08;11.98;;;17.80;99.90;;;;;;5094644;28;20126;-77
2022/04/13 10:13:42;;;;;;;16.30;11.05;;;18.00;99.90;;;;;;5096346;28;20109;-79
2022/04/13 10:16:12;;;;;;;21.23;11.05;;;17.60;99.90;;;;;;5091233;28;20507;-83
2022/04/13 10:18:58;;;;;;;18.38;10.45;;;17.90;99.90;;;;;;5094546;28;20048;-79
2022/04/13 10:21:43;;;;;;;15.70;9.68;;;18.10;99.90;;;;;;5095798;28;20040;-78
2022/04/13 10:24:34;;;;;;;18.58;9.77;;;18.30;99.90;;;;;;5096318;28;20062;-79
2022/04/13 10:26:59;;;;;;;16.27;9.95;;;18.30;99.90;;;;;;5095364;28;20052;-77
2022/04/13 10:29:26;;;;;;;18.02;10.63;;;18.20;99.90;;;;;;5094500;28;20040;-79
2022/04/13 10:32:06;;;;;;;17.85;9.85;;;18.10;99.90;;;;;;5096266;28;20082;-76
2022/04/13 10:34:33;;;;;;;15.82;10.40;;;18.70;99.90;;;;;;5077638;28;20051;-79
2022/04/13 10:37:00;;;;;;;16.90;10.85;;;18.50;99.90;;;;;;5096212;28;20047;-78
2022/04/13 10:39:26;;;;;;;16.00;9.57;;;18.20;99.90;;;;;;5094520;28;20040;-76
2022/04/13 10:41:52;;;;;;;18.42;10.02;;;18.70;99.90;;;;;;5094698;28;20056;-78
2022/04/13 10:44:27;;;;;;;16.08;9.13;;;18.70;99.90;;;;;;5094444;28;20048;-79
2022/04/13 10:46:55;;;;;;;14.00;8.85;;;18.40;99.90;;;;;;5077738;28;20044;-78
2022/04/13 10:49:26;;;;;;;16.83;9.43;;;18.50;99.90;;;;;;5093858;28;20044;-78
2022/04/13 10:51:56;;;;;;;15.00;9.35;;;18.10;99.90;;;;;;5094235;28;20044;-83
2022/04/13 10:54:28;;;;;;;15.27;8.60;;;18.00;99.90;;;;;;5077531;28;20480;-78
2022/04/13 10:56:56;;;;;;;15.82;8.15;;;18.10;99.90;;;;;;5095157;28;20044;-78
2022/04/13 10:59:52;;;;;;;14.48;8.50;;;17.60;99.90;;;;;;5093846;28;20047;-80
2022/04/13 11:02:31;;;;;;;17.30;8.85;;;18.00;99.90;;;;;;5089680;28;20067;-77
2022/04/13 11:04:58;;;;;;;14.00;7.22;;;17.70;99.90;;;;;;5095518;28;20518;-77
2022/04/13 11:07:25;;;;;;;16.17;7.32;;;17.50;99.90;;;;;;5094925;28;20057;-85
2022/04/13 11:09:57;;;;;;;15.18;7.18;;;18.00;99.90;;;;;;5076870;28;20063;-78
2022/04/13 11:12:25;;;;;;;16.48;7.13;;;18.00;99.90;;;;;;5093844;28;20505;-76
2022/04/13 11:14:58;;;;;;;13.10;7.30;;;18.10;99.90;;;;;;5077125;28;20459;-78
2022/04/13 11:17:27;;;;;;;14.50;7.47;;;17.60;99.90;;;;;;5095213;28;20090;-81
2022/04/13 11:20:20;;;;;;;14.57;7.65;;;18.10;99.90;;;;;;5093476;28;20040;-83
2022/04/13 11:23:05;;;;;;;15.45;7.70;;;17.70;99.90;;;;;;5094468;28;20072;-77
2022/04/13 11:25:47;;;;;;;13.73;7.03;;;17.80;99.90;;;;;;5079691;28;20147;-75
2022/04/13 11:28:26;;;;;;;16.27;6.97;;;17.60;99.90;;;;;;5094438;28;20055;-82
2022/04/13 11:31:12;;;;;;;15.50;6.85;;;17.40;99.90;;;;;;5092943;28;20522;-77
2022/04/13 11:33:44;;;;;;;15.93;7.10;;;17.00;99.90;;;;;;5094242;28;20080;-78
2022/04/13 11:36:10;;;;;;;16.30;7.00;;;17.10;99.90;;;;;;5093263;28;20043;-76
2022/04/13 11:38:36;;;;;;;14.35;7.13;;;17.30;99.90;;;;;;5094207;28;20395;-79
2022/04/13 11:41:07;;;;;;;19.60;7.72;;;16.60;99.90;;;;;;5092963;28;20127;-77
2022/04/13 11:43:33;;;;;;;18.98;7.90;;;16.70;99.90;;;;;;5094521;28;20098;-78
2022/04/13 11:46:00;;;;;;;10.52;6.20;;;16.90;99.90;;;;;;5093185;28;20062;-78
2022/04/13 11:48:33;;;;;;;16.20;6.07;;;16.90;99.90;;;;;;5093335;28;20093;-77
2022/04/13 11:51:27;;;;;;;14.50;6.50;;;16.40;99.90;;;;;;5076803;28;20449;-77
2022/04/13 11:54:14;;;;;;;16.65;7.47;;;16.10;99.90;;;;;;5093286;28;20422;-77
2022/04/13 11:56:49;;;;;;;16.52;7.32;;;16.40;99.90;;;;;;5093957;28;20040;-78
2022/04/13 11:59:47;;;;;;;19.80;6.55;;;16.10;99.90;;;;;;5093502;28;20093;-78
2022/04/13 12:02:15;;;;;;;15.25;6.95;;;16.30;99.90;;;;;;5077023;28;20082;-76
2022/04/13 12:04:45;;;;;;;19.08;7.57;;;16.10;99.90;;;;;;5076364;28;20052;-77
2022/04/13 12:07:11;;;;;;;17.20;7.43;;;16.10;99.90;;;;;;5092959;28;20484;-78
2022/04/13 12:09:37;;;;;;;17.05;7.35;;;16.40;99.90;;;;;;5092967;28;20075;-77
2022/04/13 12:12:03;;;;;;;17.50;7.88;;;15.60;99.90;;;;;;5126846;27;20186;-76
2022/04/13 12:14:33;;;;;;;18.13;7.80;;;15.60;99.90;;;;;;5093921;28;20087;-76
2022/04/13 12:17:02;;;;;;;14.18;8.40;;;16.00;99.90;;;;;;5092666;28;20051;-77
2022/04/13 12:19:44;;;;;;;14.48;8.10;;;15.90;99.90;;;;;;5093838;28;20051;-77
2022/04/13 12:22:18;;;;;;;20.15;8.40;;;15.90;99.90;;;;;;5093122;28;20040;-78
2022/04/13 12:25:02;;;;;;;18.92;8.63;;;15.90;99.90;;;;;;5092878;28;20052;-76
2022/04/13 12:27:28;;;;;;;15.00;7.88;;;15.70;99.90;;;;;;5093512;28;20122;-76
2022/04/13 12:30:16;;;;;;;21.08;8.10;;;15.90;99.90;;;;;;5092528;28;20127;-77
2022/04/13 12:32:48;;;;;;;20.25;9.48;;;15.90;99.90;;;;;;5092301;28;20557;-76
2022/04/13 12:35:15;;;;;;;21.25;8.43;;;15.90;99.90;;;;;;5092443;28;20048;-77
2022/04/13 12:37:51;;;;;;;13.30;7.22;;;16.00;99.90;;;;;;5092212;28;20040;-77
2022/04/13 12:40:20;;;;;;;;;;;15.70;99.90;;;;;;5093957;28;20044;-76
2022/04/13 12:42:46;;;;;;;15.07;6.40;;;15.90;99.90;;;;;;5092861;28;19920;-78